Time;durP1;ratioP1;P1;durP2;ratioP2;P2;SDS_P1;SDS_P2;PMS_P1;PMS_P2;Temp;Humidity;BMP_temperature;BMP_pressure;BME280_temperature;BME280_humidity;BME280_pressure;Samples;Min_cycle;Max_cycle;Signal;HPM_P1;HPM_P2
2022/06/01 00:01:48;;;;;;;5.80;4.10;;;;;;;8.08;99.86;100580.64;107963;1279;74595;-85
2022/06/01 00:04:20;;;;;;;7.80;4.40;;;;;;;8.08;99.90;100576.04;107935;1280;71058;-85
2022/06/01 00:07:12;;;;;;;7.90;4.80;;;;;;;8.08;100.00;100575.45;107742;1280;71817;-86
2022/06/01 00:09:49;;;;;;;4.90;3.10;;;;;;;8.07;100.00;100575.38;107908;1279;62751;-86
2022/06/01 00:12:18;;;;;;;6.70;3.90;;;;;;;8.08;100.00;100576.77;108039;1279;60574;-86
2022/06/01 00:14:54;;;;;;;5.50;4.20;;;;;;;8.07;100.00;100577.52;107946;1279;75685;-86
2022/06/01 00:17:24;;;;;;;6.60;4.20;;;;;;;8.07;100.00;100578.58;108041;1279;73393;-85
2022/06/01 00:19:51;;;;;;;5.70;4.30;;;;;;;8.07;100.00;100582.30;107996;1279;75412;-86
2022/06/01 00:22:39;;;;;;;7.00;4.60;;;;;;;8.08;100.00;100583.41;107979;1279;62153;-85
2022/06/01 00:25:25;;;;;;;4.20;3.10;;;;;;;8.08;100.00;100573.70;107940;1279;61673;-85
2022/06/01 00:28:00;;;;;;;4.60;3.20;;;;;;;8.08;100.00;100571.82;107955;1280;76332;-85
2022/06/01 00:30:29;;;;;;;3.50;2.80;;;;;;;8.07;100.00;100570.09;107597;1279;71313;-86
2022/06/01 00:33:01;;;;;;;6.50;3.60;;;;;;;8.08;100.00;100568.48;108015;1279;74348;-86
2022/06/01 00:35:29;;;;;;;5.30;3.50;;;;;;;8.10;100.00;100565.95;108090;1280;61719;-85
2022/06/01 00:37:56;;;;;;;5.10;3.30;;;;;;;8.11;100.00;100565.33;108235;1281;61557;-85
2022/06/01 00:40:36;;;;;;;6.80;4.60;;;;;;;8.13;100.00;100564.33;108027;1279;74673;-86
2022/06/01 00:43:24;;;;;;;6.70;4.40;;;;;;;8.17;100.00;100563.61;107946;1279;71605;-85
2022/06/01 00:45:55;;;;;;;6.20;4.00;;;;;;;8.19;100.00;100560.61;108114;1279;73306;-85
2022/06/01 00:48:44;;;;;;;;;;;;;;;;;;;;;
2022/06/01 00:51:36;;;;;;;;;;;;;;;;;;;;;
2022/06/01 00:54:05;;;;;;;5.10;3.30;;;;;;;8.30;100.00;100564.77;108104;1279;75573;-85
2022/06/01 00:56:54;;;;;;;6.00;3.20;;;;;;;8.31;100.00;100564.23;108257;1279;72577;-86
2022/06/01 00:59:46;;;;;;;6.40;3.60;;;;;;;8.36;100.00;100563.57;108431;1279;73663;-85
2022/06/01 01:02:19;;;;;;;4.40;2.80;;;;;;;8.41;100.00;100553.05;108462;1279;62045;-85
2022/06/01 01:04:46;;;;;;;4.60;2.60;;;;;;;8.45;100.00;100555.25;108467;1280;60075;-85
2022/06/01 01:07:36;;;;;;;3.60;2.50;;;;;;;8.47;100.00;100549.52;108271;1280;75087;-85
2022/06/01 01:10:18;;;;;;;4.40;2.60;;;;;;;8.51;100.00;100551.42;108379;1279;71450;-85
2022/06/01 01:12:59;;;;;;;3.90;3.10;;;;;;;8.52;100.00;100551.96;108467;1279;74773;-85
2022/06/01 01:15:30;;;;;;;4.30;3.00;;;;;;;8.52;100.00;100548.79;108539;1280;61168;-85
2022/06/01 01:18:02;;;;;;;5.70;3.50;;;;;;;8.52;100.00;100548.68;108253;1279;60260;-85
2022/06/01 01:20:29;;;;;;;3.70;2.80;;;;;;;8.51;100.00;100546.95;107958;1280;76167;-85
2022/06/01 01:23:29;;;;;;;;;;;;;;;;;;;;;
2022/06/01 01:26:01;;;;;;;5.80;3.30;;;;;;;8.52;100.00;100534.17;108088;1279;71648;-85
2022/06/01 01:28:53;;;;;;;6.90;3.10;;;;;;;8.53;100.00;100525.95;107887;1279;62637;-84
2022/06/01 01:31:37;;;;;;;;;;;;;;;;;;;;;
2022/06/01 01:34:19;;;;;;;;;;;;;;;;;;;;;
2022/06/01 01:36:52;;;;;;;5.40;3.40;;;;;;;8.61;100.00;100510.86;108042;1280;72777;-85
2022/06/01 01:39:36;;;;;;;4.20;2.90;;;;;;;8.64;100.00;100508.61;107970;1279;73210;-85
2022/06/01 01:42:08;;;;;;;5.60;3.50;;;;;;;8.68;100.00;100505.11;107859;1280;61513;-85
2022/06/01 01:44:52;;;;;;;4.80;3.30;;;;;;;8.73;100.00;100502.00;107988;1279;60702;-86
2022/06/01 01:47:22;;;;;;;5.30;2.80;;;;;;;8.77;100.00;100495.41;108005;1279;75028;-87
2022/06/01 01:49:59;;;;;;;6.50;2.90;;;;;;;8.80;100.00;100496.60;107913;1280;71648;-86
2022/06/01 01:52:47;;;;;;;;;;;;;;;;;;;;;
2022/06/01 01:55:31;;;;;;;5.50;3.30;;;;;;;8.85;100.00;100490.08;107954;1280;63521;-85
2022/06/01 01:58:07;;;;;;;5.60;3.30;;;;;;;8.92;100.00;100505.53;107917;1280;60777;-84
2022/06/01 02:01:14;;;;;;;6.10;2.60;;;;;;;8.95;100.00;100509.06;107966;1280;76151;-84
2022/06/01 02:03:51;;;;;;;4.40;2.90;;;;;;;8.99;100.00;100507.97;107948;1279;73084;-84
2022/06/01 02:06:33;;;;;;;3.50;2.50;;;;;;;9.01;100.00;100507.58;107877;1279;72768;-84
2022/06/01 02:09:19;;;;;;;4.10;2.80;;;;;;;9.02;100.00;100503.73;107802;1280;61546;-85
2022/06/01 02:14:46;;;;;;;7.60;3.10;;;;;;;9.05;100.00;100493.67;107775;1280;75825;-84
2022/06/01 02:17:36;;;;;;;5.70;3.10;;;;;;;9.12;100.00;100497.52;107926;1279;70021;-85
2022/06/01 02:20:13;;;;;;;4.50;3.00;;;;;;;9.14;100.00;100500.45;107722;1279;73299;-84
2022/06/01 02:22:43;;;;;;;4.70;3.00;;;;;;;9.16;100.00;100499.69;107888;1279;59325;-87
2022/06/01 02:25:11;;;;;;;5.80;4.00;;;;;;;9.19;100.00;100505.00;108129;1278;60439;-85
2022/06/01 02:27:41;;;;;;;4.20;3.10;;;;;;;9.22;100.00;100504.91;108045;1280;76823;-85
2022/06/01 02:30:19;;;;;;;6.00;3.30;;;;;;;9.25;100.00;100504.95;108008;1279;70018;-85
2022/06/01 02:32:48;;;;;;;9.20;4.20;;;;;;;9.27;100.00;100500.45;107920;1281;74223;-84
2022/06/01 02:35:21;;;;;;;4.10;3.10;;;;;;;9.30;100.00;100499.27;108214;1279;61012;-85
2022/06/01 02:37:52;;;;;;;3.90;2.80;;;;;;;9.32;100.00;100499.89;108111;1279;60733;-86
2022/06/01 02:40:22;;;;;;;4.90;2.70;;;;;;;9.29;100.00;100497.69;108285;1279;74090;-85
2022/06/01 02:42:51;;;;;;;6.30;3.50;;;;;;;9.34;100.00;100505.80;108183;1280;71839;-85
2022/06/01 02:45:21;;;;;;;6.20;3.90;;;;;;;9.29;100.00;100504.73;108219;1279;72868;-85
2022/06/01 02:47:52;;;;;;;5.30;3.70;;;;;;;9.34;100.00;100517.31;108371;1279;62561;-85
2022/06/01 02:50:24;;;;;;;7.00;3.90;;;;;;;9.34;100.00;100514.30;108069;1280;61492;-86
2022/06/01 02:52:52;;;;;;;5.90;3.30;;;;;;;9.34;100.00;100514.67;107855;1281;75945;-85
2022/06/01 02:55:25;;;;;;;4.90;3.40;;;;;;;9.34;100.00;100514.35;107954;1280;70100;-84
2022/06/01 02:57:57;;;;;;;7.70;3.60;;;;;;;9.33;100.00;100523.77;108092;1279;72977;-85
2022/06/01 03:00:40;;;;;;;5.30;4.10;;;;;;;9.32;100.00;100527.99;107982;1280;61638;-85
2022/06/01 03:03:09;;;;;;;4.70;3.10;;;;;;;9.31;100.00;100530.73;108146;1279;61830;-85
2022/06/01 03:05:38;;;;;;;6.00;4.60;;;;;;;9.31;100.00;100529.48;108013;1279;76484;-85
2022/06/01 03:08:06;;;;;;;4.80;3.40;;;;;;;9.32;100.00;100527.26;108186;1278;70879;-85
2022/06/01 03:10:40;;;;;;;4.80;3.90;;;;;;;9.33;100.00;100530.66;108149;1280;73000;-85
2022/06/01 03:13:26;;;;;;;4.60;2.90;;;;;;;9.34;100.00;100529.23;107994;1279;61150;-85
2022/06/01 03:15:56;;;;;;;5.40;3.80;;;;;;;9.36;100.00;100526.72;107984;1281;60420;-85
2022/06/01 03:18:22;;;;;;;6.30;3.90;;;;;;;9.40;100.00;100522.99;108185;1279;74934;-86
2022/06/01 03:20:50;;;;;;;4.30;3.40;;;;;;;9.43;100.00;100520.73;108235;1279;70386;-85
2022/06/01 03:23:20;;;;;;;5.80;4.10;;;;;;;9.46;100.00;100519.33;108194;1279;72977;-85
2022/06/01 03:25:50;;;;;;;4.10;3.00;;;;;;;9.48;99.92;100521.38;108215;1279;60713;-86
2022/06/01 03:28:39;;;;;;;6.90;4.50;;;;;;;9.51;99.95;100525.42;108268;1279;60710;-85
2022/06/01 03:31:14;;;;;;;9.60;5.10;;;;;;;9.55;99.67;100523.48;108147;1279;75113;-85
2022/06/01 03:33:44;;;;;;;6.70;4.70;;;;;;;9.57;99.51;100520.94;107964;1279;72707;-85
2022/06/01 03:36:10;;;;;;;6.00;3.70;;;;;;;9.59;99.44;100522.41;107982;1279;73938;-85
2022/06/01 03:38:40;;;;;;;5.90;3.60;;;;;;;9.62;98.71;100518.46;107984;1279;62332;-84
2022/06/01 03:41:29;;;;;;;6.80;3.50;;;;;;;9.64;98.70;100515.23;107794;1280;61960;-85
2022/06/01 03:46:47;;;;;;;7.50;4.80;;;;;;;9.66;98.39;100519.04;107999;1279;73857;-85
2022/06/01 03:49:52;;;;;;;;;;;;;;;;;;;;;
2022/06/01 03:52:19;;;;;;;6.40;4.40;;;;;;;9.69;98.42;100534.05;108001;1279;62968;-84
2022/06/01 03:54:49;;;;;;;9.20;4.60;;;;;;;9.70;97.96;100534.48;107875;1279;62002;-85
2022/06/01 03:57:34;;;;;;;4.60;3.80;;;;;;;9.71;97.90;100532.80;107858;1280;74970;-84
2022/06/01 04:00:01;;;;;;;7.10;4.70;;;;;;;9.72;97.94;100537.94;107978;1279;71481;-84
2022/06/01 04:02:28;;;;;;;9.60;4.80;;;;;;;9.73;97.79;100536.77;107991;1279;76009;-85
2022/06/01 04:04:55;;;;;;;7.10;4.00;;;;;;;9.75;97.61;100543.14;108006;1279;62184;-85
2022/06/01 04:07:25;;;;;;;8.30;5.70;;;;;;;9.75;97.41;100544.33;107885;1279;61103;-84
2022/06/01 04:09:54;;;;;;;8.60;5.80;;;;;;;9.76;97.33;100549.36;107845;1280;76153;-85
2022/06/01 04:12:23;;;;;;;8.10;4.80;;;;;;;9.77;97.30;100549.94;107997;1279;71862;-85
2022/06/01 04:14:50;;;;;;;7.00;4.70;;;;;;;9.78;96.82;100553.55;107957;1279;72963;-84
2022/06/01 04:17:17;;;;;;;6.70;4.90;;;;;;;9.80;96.80;100557.17;107886;1280;61971;-85
2022/06/01 04:19:44;;;;;;;7.20;4.60;;;;;;;9.82;96.66;100561.56;108008;1280;60882;-85
2022/06/01 04:22:13;;;;;;;9.80;5.40;;;;;;;9.85;96.29;100564.57;108009;1280;75010;-84
2022/06/01 04:24:40;;;;;;;7.10;5.30;;;;;;;9.87;96.00;100569.27;107896;1279;71244;-85
2022/06/01 04:27:08;;;;;;;7.50;5.10;;;;;;;9.92;95.87;100570.58;107763;1279;74177;-84
2022/06/01 04:29:34;;;;;;;9.00;5.50;;;;;;;9.95;95.49;100574.55;107910;1279;62650;-84
2022/06/01 04:32:10;;;;;;;8.30;5.30;;;;;;;10.01;95.14;100571.45;107913;1279;61821;-83
2022/06/01 04:34:37;;;;;;;6.90;5.00;;;;;;;10.07;94.76;100568.91;107979;1279;75074;-82
2022/06/01 04:37:07;;;;;;;8.40;5.20;;;;;;;10.13;94.54;100564.01;107954;1279;72750;-82
2022/06/01 04:39:34;;;;;;;7.40;5.20;;;;;;;10.20;94.02;100565.90;107895;1279;74465;-82
2022/06/01 04:42:00;;;;;;;11.90;5.20;;;;;;;10.28;93.66;100562.02;107783;1280;63453;-83
2022/06/01 04:47:21;;;;;;;12.00;7.00;;;;;;;10.47;92.88;100559.35;107707;1268;146837;-88
2022/06/01 04:49:51;;;;;;;6.80;4.70;;;;;;;10.54;92.63;100561.25;107931;1279;72380;-88
2022/06/01 04:52:18;;;;;;;7.00;4.90;;;;;;;10.60;92.25;100561.14;107931;1279;72943;-88
2022/06/01 04:54:46;;;;;;;6.60;5.00;;;;;;;10.66;91.60;100566.09;107925;1279;62934;-88
2022/06/01 04:57:13;;;;;;;8.70;4.70;;;;;;;10.72;91.32;100565.24;107486;1279;62062;-88
2022/06/01 04:59:41;;;;;;;5.70;3.30;;;;;;;10.79;91.30;100565.07;107960;1279;74462;-87
2022/06/01 05:02:08;;;;;;;7.50;5.00;;;;;;;10.87;90.60;100565.73;107981;1279;70346;-88
2022/06/01 05:04:35;;;;;;;8.00;4.80;;;;;;;10.95;90.57;100567.78;107826;1281;74130;-87
2022/06/01 05:07:07;;;;;;;5.10;4.10;;;;;;;11.03;89.82;100563.20;107961;1277;63332;-88
2022/06/01 05:09:36;;;;;;;6.90;4.00;;;;;;;11.11;89.64;100562.86;108125;1278;60342;-87
2022/06/01 05:12:14;;;;;;;;;;;;;;;11.19;89.56;100564.38;108157;1277;75145;-87
2022/06/01 05:14:42;;;;;;;9.10;4.30;;;;;;;11.24;89.31;100566.93;108152;1277;71622;-87
2022/06/01 05:17:16;;;;;;;6.10;4.40;;;;;;;11.32;89.15;100567.09;108114;1277;72180;-87
2022/06/01 05:20:02;;;;;;;7.30;3.40;;;;;;;11.37;87.93;100568.05;108068;1279;61959;-87
2022/06/01 05:22:33;;;;;;;9.10;4.00;;;;;;;11.45;88.26;100566.61;108019;1277;60644;-87
2022/06/01 05:24:59;;;;;;;7.10;4.40;;;;;;;11.52;87.85;100565.03;108122;1277;75011;-87
2022/06/01 05:27:28;;;;;;;5.50;3.50;;;;;;;11.60;87.76;100566.16;108068;1277;73119;-87
2022/06/01 05:29:56;;;;;;;6.70;4.50;;;;;;;11.66;86.75;100567.18;108050;1277;75039;-88
2022/06/01 05:32:23;;;;;;;6.80;3.60;;;;;;;11.71;85.54;100568.42;108018;1277;63050;-87
2022/06/01 05:34:50;;;;;;;7.50;4.20;;;;;;;11.77;85.17;100569.04;107960;1278;60829;-87
2022/06/01 05:37:20;;;;;;;7.20;3.50;;;;;;;11.85;84.70;100570.06;107855;1279;77578;-87
2022/06/01 05:39:49;;;;;;;5.10;3.90;;;;;;;11.95;83.92;100569.28;108054;1278;70409;-87
2022/06/01 05:42:16;;;;;;;7.30;4.60;;;;;;;12.06;84.38;100564.40;108066;1277;72927;-87
2022/06/01 05:44:52;;;;;;;5.40;4.40;;;;;;;12.19;84.00;100561.02;108169;1277;62416;-86
2022/06/01 05:47:24;;;;;;;4.00;3.10;;;;;;;12.29;83.76;100564.69;107943;1279;60696;-86
2022/06/01 05:49:58;;;;;;;6.40;4.30;;;;;;;12.43;83.69;100568.90;107702;1281;74972;-86
2022/06/01 05:52:32;;;;;;;6.50;4.60;;;;;;;12.50;82.20;100572.75;107704;1282;70329;-87
2022/06/01 05:55:18;;;;;;;5.20;4.10;;;;;;;12.52;80.38;100575.42;107724;1283;73051;-87
2022/06/01 05:57:52;;;;;;;5.60;4.30;;;;;;;12.52;80.08;100580.71;107696;1271;151942;-83
2022/06/01 06:00:19;;;;;;;5.50;4.50;;;;;;;12.51;79.60;100580.77;108115;1279;60304;-83
2022/06/01 06:02:48;;;;;;;8.70;4.30;;;;;;;12.50;79.56;100584.63;108145;1280;75597;-82
2022/06/01 06:08:18;;;;;;;8.00;4.40;;;;;;;12.45;80.02;100596.48;107738;1281;72978;-83
2022/06/01 06:10:45;;;;;;;5.90;4.30;;;;;;;12.44;80.09;100595.36;108006;1281;62557;-84
2022/06/01 06:13:48;;;;;;;6.10;4.10;;;;;;;12.41;79.11;100600.45;108245;1278;62057;-85
2022/06/01 06:16:32;;;;;;;7.70;5.50;;;;;;;12.39;79.00;100599.00;108213;1278;73859;-85
2022/06/01 06:19:05;;;;;;;6.10;4.40;;;;;;;12.33;78.56;100597.92;108032;1279;71862;-84
2022/06/01 06:21:35;;;;;;;6.80;4.40;;;;;;;12.32;78.28;100608.91;108152;1279;73287;-83
2022/06/01 06:24:11;;;;;;;7.70;4.20;;;;;;;12.30;78.48;100608.44;107909;1281;63118;-85
2022/06/01 06:26:42;;;;;;;6.50;4.50;;;;;;;12.27;78.26;100613.08;108128;1279;61731;-86
2022/06/01 06:29:11;;;;;;;6.60;4.80;;;;;;;12.27;77.73;100611.44;108174;1279;75715;-85
2022/06/01 06:31:39;;;;;;;5.50;4.10;;;;;;;12.39;78.07;100607.84;108342;1278;70149;-85
2022/06/01 06:34:14;;;;;;;;;;;;;;;12.51;77.73;100603.54;108231;1279;72436;-85
2022/06/01 06:36:44;;;;;;;6.10;4.10;;;;;;;12.61;77.32;100608.14;108308;1279;63350;-86
2022/06/01 06:39:13;;;;;;;6.00;4.50;;;;;;;12.77;76.35;100610.66;108322;1278;60856;-85
2022/06/01 06:41:43;;;;;;;7.70;4.90;;;;;;;12.95;75.22;100611.21;108288;1280;74390;-86
2022/06/01 06:44:10;;;;;;;7.60;4.50;;;;;;;13.16;74.34;100614.29;108089;1280;72895;-85
2022/06/01 06:46:40;;;;;;;6.50;4.10;;;;;;;13.33;71.85;100608.95;107993;1280;73242;-85
2022/06/01 06:49:12;;;;;;;7.00;4.60;;;;;;;13.46;69.89;100614.76;108082;1279;61305;-86
2022/06/01 06:51:39;;;;;;;7.00;4.60;;;;;;;13.57;69.67;100616.51;108455;1280;61893;-85
2022/06/01 06:54:06;;;;;;;6.10;3.70;;;;;;;13.64;68.86;100616.14;108511;1280;74925;-84
2022/06/01 06:56:36;;;;;;;8.90;4.50;;;;;;;13.69;68.28;100617.81;108539;1281;71302;-83
2022/06/01 06:59:04;;;;;;;7.70;3.80;;;;;;;13.81;67.47;100614.80;107844;1284;73270;-83
2022/06/01 07:01:33;;;;;;;5.60;3.30;;;;;;;13.92;67.26;100615.95;108243;1281;62327;-84
2022/06/01 07:04:00;;;;;;;8.00;3.90;;;;;;;13.96;66.08;100620.93;108216;1279;60249;-84
2022/06/01 07:06:45;;;;;;;6.60;3.90;;;;;;;13.97;65.90;100614.44;108076;1281;75495;-84
2022/06/01 07:09:12;;;;;;;5.80;4.90;;;;;;;14.08;65.87;100613.14;107994;1280;72593;-85
2022/06/01 07:11:39;;;;;;;5.40;4.00;;;;;;;14.18;65.17;100621.37;107705;1281;73158;-84
2022/06/01 07:14:05;;;;;;;6.80;5.20;;;;;;;14.25;64.86;100622.10;107986;1281;62221;-85
2022/06/01 07:16:35;;;;;;;5.20;4.00;;;;;;;14.24;63.85;100622.91;107698;1282;60446;-84
2022/06/01 07:19:04;;;;;;;6.00;4.10;;;;;;;14.24;63.59;100618.69;107978;1281;75143;-84
2022/06/01 07:21:41;;;;;;;5.10;3.90;;;;;;;14.31;63.72;100616.70;107761;1281;72446;-84
2022/06/01 07:24:14;;;;;;;7.60;4.70;;;;;;;14.47;64.05;100623.13;107942;1280;72980;-84
2022/06/01 07:26:43;;;;;;;4.80;3.50;;;;;;;14.58;62.62;100622.25;108033;1280;59238;-83
2022/06/01 07:29:12;;;;;;;4.80;2.90;;;;;;;14.69;63.21;100624.52;107733;1281;60576;-84
2022/06/01 07:31:42;;;;;;;6.20;4.40;;;;;;;14.73;60.80;100630.81;107737;1281;72653;-85
2022/06/01 07:34:08;;;;;;;7.90;3.90;;;;;;;14.82;61.59;100627.98;107898;1281;71741;-81
2022/06/01 07:36:38;;;;;;;6.50;4.30;;;;;;;14.98;61.37;100632.06;107928;1281;59014;-82
2022/06/01 07:44:53;;;;;;;5.80;4.00;;;;;;;15.71;59.99;100630.15;107647;1281;74968;-82
2022/06/01 07:47:22;;;;;;;5.70;4.50;;;;;;;15.82;59.96;100632.73;107800;1281;73576;-82
2022/06/01 07:50:10;;;;;;;5.20;4.70;;;;;;;15.79;58.64;100632.89;107785;1280;73833;-81
2022/06/01 07:52:56;;;;;;;7.10;4.90;;;;;;;15.80;58.92;100638.50;107515;1281;61079;-80
2022/06/01 07:55:23;;;;;;;5.00;3.50;;;;;;;15.71;58.86;100640.77;107963;1279;59465;-80
2022/06/01 07:57:50;;;;;;;5.30;4.00;;;;;;;15.58;59.74;100635.40;108050;1279;74841;-80
2022/06/01 08:00:17;;;;;;;5.50;3.80;;;;;;;15.39;60.08;100634.56;107923;1281;72554;-80
2022/06/01 08:02:44;;;;;;;5.00;3.10;;;;;;;15.39;60.19;100634.66;107959;1281;71959;-81
2022/06/01 08:05:13;;;;;;;5.40;3.90;;;;;;;15.37;59.13;100635.39;107926;1280;59340;-81
2022/06/01 08:07:41;;;;;;;4.80;3.60;;;;;;;15.42;59.11;100641.48;108239;1278;62227;-79
2022/06/01 08:10:09;;;;;;;4.40;3.80;;;;;;;15.53;58.74;100644.50;108024;1281;73678;-80
2022/06/01 08:15:21;;;;;;;4.60;4.20;;;;;;;15.82;57.80;100644.09;107938;1281;72932;-80
2022/06/01 08:17:53;;;;;;;4.60;3.60;;;;;;;15.92;57.43;100647.55;107732;1281;60712;-82
2022/06/01 08:20:20;;;;;;;4.20;3.20;;;;;;;15.93;57.13;100646.94;107947;1281;60300;-81
2022/06/01 08:22:46;;;;;;;6.00;4.20;;;;;;;16.00;58.11;100648.59;107949;1280;76222;-81
2022/06/01 08:25:18;;;;;;;7.60;3.80;;;;;;;15.99;57.41;100650.02;107766;1281;70494;-81
2022/06/01 08:27:46;;;;;;;4.70;3.10;;;;;;;16.07;57.36;100651.08;107908;1281;73105;-81
2022/06/01 08:30:15;;;;;;;5.60;3.40;;;;;;;16.05;57.08;100651.66;107973;1280;60682;-81
2022/06/01 08:32:46;;;;;;;4.10;3.00;;;;;;;16.02;57.77;100649.04;107893;1281;60740;-81
2022/06/01 08:35:18;;;;;;;3.90;2.70;;;;;;;16.01;57.75;100647.77;107949;1280;75018;-80
2022/06/01 08:37:46;;;;;;;5.30;3.40;;;;;;;16.05;57.42;100646.85;107870;1280;73051;-80
2022/06/01 08:40:17;;;;;;;4.30;3.30;;;;;;;16.08;55.83;100644.69;107826;1281;73927;-80
2022/06/01 08:42:50;;;;;;;4.10;2.40;;;;;;;16.22;56.06;100648.91;107898;1280;60984;-80
2022/06/01 08:45:17;;;;;;;3.70;2.50;;;;;;;16.33;54.96;100644.77;107836;1279;59725;-80
2022/06/01 08:47:45;;;;;;;3.90;2.60;;;;;;;16.42;54.88;100649.84;107930;1278;75011;-80
2022/06/01 08:50:27;;;;;;;3.90;2.80;;;;;;;16.49;54.16;100645.55;107951;1281;72392;-80
2022/06/01 08:52:56;;;;;;;5.90;3.30;;;;;;;16.54;54.42;100648.90;107920;1280;74013;-80
2022/06/01 08:55:26;;;;;;;3.80;2.80;;;;;;;16.53;54.92;100649.44;107693;1280;61398;-80
2022/06/01 08:58:11;;;;;;;3.20;2.60;;;;;;;16.56;55.07;100646.95;107926;1280;60649;-81
2022/06/01 09:00:59;;;;;;;4.30;2.90;;;;;;;16.43;55.36;100649.90;107879;1281;76146;-81
2022/06/01 09:03:39;;;;;;;3.90;2.90;;;;;;;16.19;55.12;100646.95;107880;1280;70306;-81
2022/06/01 09:06:30;;;;;;;3.80;2.80;;;;;;;16.00;55.80;100645.21;107940;1280;74005;-81
2022/06/01 09:09:03;;;;;;;3.10;2.40;;;;;;;15.89;55.79;100643.90;107745;1281;60991;-81
2022/06/01 09:11:32;;;;;;;4.10;2.20;;;;;;;15.97;56.21;100650.81;107920;1281;61834;-81
2022/06/01 09:14:08;;;;;;;4.50;2.60;;;;;;;16.14;55.53;100643.96;107815;1281;75129;-81
2022/06/01 09:16:45;;;;;;;3.80;2.70;;;;;;;16.36;54.20;100643.98;107955;1279;72828;-81
2022/06/01 09:19:27;;;;;;;4.00;2.50;;;;;;;16.51;53.19;100648.35;108267;1280;74008;-81
2022/06/01 09:24:57;;;;;;;5.40;2.50;;;;;;;16.92;52.58;100647.65;108140;1281;61091;-80
2022/06/01 09:27:38;;;;;;;3.60;2.50;;;;;;;17.06;52.46;100646.46;108022;1281;76039;-80
2022/06/01 09:30:21;;;;;;;5.00;2.70;;;;;;;17.13;51.29;100643.72;108361;1281;70786;-80
2022/06/01 09:33:20;;;;;;;3.80;2.70;;;;;;;17.18;51.38;100640.67;107406;1281;625388;-81
2022/06/01 09:36:08;;;;;;;5.30;3.20;;;;;;;17.26;51.40;100638.02;107802;1281;60670;-80
2022/06/01 09:38:41;;;;;;;2.90;2.10;;;;;;;17.24;51.14;100642.96;107937;1281;60713;-81
2022/06/01 09:41:17;;;;;;;3.50;1.70;;;;;;;17.20;50.50;100641.97;107636;1283;75418;-81
2022/06/01 09:43:59;;;;;;;3.50;2.40;;;;;;;17.04;49.42;100645.98;107648;1282;71389;-81
2022/06/01 09:46:37;;;;;;;3.40;2.30;;;;;;;16.82;49.42;100647.70;107961;1281;72931;-81
2022/06/01 09:49:24;;;;;;;4.40;2.20;;;;;;;16.45;49.68;100657.73;107883;1280;60228;-81
2022/06/01 09:51:57;;;;;;;2.70;1.50;;;;;;;16.20;51.32;100648.91;107938;1280;60578;-81
2022/06/01 09:54:30;;;;;;;3.40;1.90;;;;;;;15.87;51.54;100657.04;107859;1281;76247;-81
2022/06/01 09:57:14;;;;;;;3.70;1.90;;;;;;;15.84;52.39;100645.02;107784;1281;71440;-81
2022/06/01 10:08:42;;;;;;;3.00;2.10;;;;;;;16.81;51.20;100647.30;107960;1280;74011;-80
2022/06/01 10:11:30;;;;;;;3.40;2.50;;;;;;;16.89;50.92;100644.50;107663;1281;73695;-81
2022/06/01 10:14:14;;;;;;;4.10;2.50;;;;;;;16.90;51.05;100637.14;107836;1281;73057;-81
2022/06/01 10:16:52;;;;;;;3.70;2.70;;;;;;;16.99;50.37;100633.48;107590;1280;60652;-81
2022/06/01 10:19:41;;;;;;;3.60;2.40;;;;;;;17.27;49.69;100638.86;107770;1281;60157;-81
2022/06/01 10:22:16;;;;;;;3.00;2.40;;;;;;;17.25;49.41;100634.88;107575;1281;75045;-81
2022/06/01 10:25:05;;;;;;;3.90;2.60;;;;;;;17.28;49.95;100632.23;107931;1281;72473;-80
2022/06/01 10:27:40;;;;;;;2.90;2.20;;;;;;;17.63;49.78;100630.61;107785;1281;73870;-80
2022/06/01 10:30:17;;;;;;;3.90;1.80;;;;;;;17.73;49.28;100637.73;107931;1280;61817;-80
2022/06/01 10:32:53;;;;;;;3.00;1.80;;;;;;;17.66;49.10;100630.33;107912;1280;59994;-80
2022/06/01 10:35:38;;;;;;;4.00;2.00;;;;;;;17.55;49.76;100636.11;107882;1280;74197;-80
2022/06/01 10:38:17;;;;;;;5.80;2.70;;;;;;;17.32;49.66;100636.88;107832;1281;72597;-81
2022/06/01 10:40:52;;;;;;;4.10;2.60;;;;;;;17.00;50.97;100640.94;107926;1280;72868;-81
2022/06/01 10:43:39;;;;;;;3.60;2.20;;;;;;;16.42;54.99;100652.92;107901;1281;61650;-82
2022/06/01 10:46:43;;;;;;;3.40;2.10;;;;;;;15.81;59.71;100652.07;107892;1281;60657;-82
2022/06/01 10:49:16;;;;;;;4.20;2.50;;;;;;;15.39;62.00;100646.58;107939;1280;74119;-82
2022/06/01 10:51:44;;;;;;;4.30;2.80;;;;;;;15.37;64.88;100652.20;107893;1281;71061;-82
2022/06/01 10:54:21;;;;;;;3.10;2.30;;;;;;;15.44;62.85;100656.20;107984;1281;73950;-82
2022/06/01 10:56:48;;;;;;;7.20;2.40;;;;;;;15.55;60.92;100656.22;107965;1281;60476;-82
2022/06/01 10:59:22;;;;;;;4.60;2.70;;;;;;;15.75;60.74;100655.23;107843;1281;60998;-82
2022/06/01 11:02:04;;;;;;;5.00;2.70;;;;;;;16.02;58.68;100656.57;107905;1281;75501;-82
2022/06/01 11:05:02;;;;;;;5.40;3.90;;;;;;;16.32;57.28;100647.63;107995;1280;72548;-82
2022/06/01 11:08:09;;;;;;;5.90;3.70;;;;;;;16.75;56.93;100642.14;108021;1280;72925;-83
2022/06/01 11:10:45;;;;;;;4.30;3.10;;;;;;;17.13;55.41;100634.23;107974;1280;60499;-82
2022/06/01 11:13:43;;;;;;;4.20;3.00;;;;;;;17.32;53.91;100630.06;107971;1281;62106;-82
2022/06/01 11:16:20;;;;;;;;;;;;;;;17.55;52.52;100634.66;107835;1281;76034;-82
2022/06/01 11:18:54;;;;;;;4.50;3.00;;;;;;;17.77;51.96;100633.23;107994;1281;71401;-82
2022/06/01 11:22:01;;;;;;;5.10;3.00;;;;;;;17.83;50.86;100634.50;108121;1280;72919;-83
2022/06/01 11:24:46;;;;;;;3.70;2.90;;;;;;;17.59;50.36;100627.70;107860;1281;60332;-82
2022/06/01 11:27:19;;;;;;;7.70;3.50;;;;;;;17.54;51.28;100626.70;107880;1280;61004;-83
2022/06/01 11:29:58;;;;;;;2.90;2.40;;;;;;;17.69;51.86;100626.98;108048;1281;74737;-83
2022/06/01 11:32:41;;;;;;;4.60;2.90;;;;;;;17.90;50.97;100625.66;107911;1281;72092;-84
2022/06/01 11:35:18;;;;;;;4.20;2.50;;;;;;;18.11;50.60;100627.14;107887;1281;74149;-84
2022/06/01 11:38:07;;;;;;;3.10;2.50;;;;;;;18.21;49.76;100628.00;107925;1281;60340;-83
2022/06/01 11:40:49;;;;;;;4.50;2.40;;;;;;;18.30;49.69;100627.09;107732;1283;60598;-83
2022/06/01 11:43:31;;;;;;;3.40;2.20;;;;;;;18.56;49.52;100626.44;107808;1281;75007;-83
2022/06/01 11:46:14;;;;;;;7.30;2.80;;;;;;;18.84;47.63;100627.31;107948;1281;72552;-84
2022/06/01 11:48:56;;;;;;;5.00;3.30;;;;;;;19.08;46.77;100623.83;107664;1281;72894;-83
2022/06/01 11:51:38;;;;;;;5.40;3.10;;;;;;;18.99;46.27;100630.42;107864;1281;60184;-83
2022/06/01 11:54:09;;;;;;;6.20;3.40;;;;;;;18.98;46.05;100628.46;107775;1281;62023;-83
2022/06/01 11:56:44;;;;;;;3.90;2.00;;;;;;;19.03;46.21;100626.97;107687;1281;74970;-82
2022/06/01 11:59:19;;;;;;;4.70;2.60;;;;;;;19.15;46.30;100635.91;107799;1281;73257;-83
2022/06/01 12:02:04;;;;;;;4.20;2.50;;;;;;;19.00;46.68;100640.04;108008;1280;72874;-82
2022/06/01 12:04:38;;;;;;;3.40;2.60;;;;;;;18.62;47.77;100640.45;107683;1281;61666;-83
2022/06/01 12:07:11;;;;;;;3.90;3.40;;;;;;;18.07;49.52;100651.60;107683;1282;62563;-83
2022/06/01 12:09:44;;;;;;;4.20;2.30;;;;;;;17.54;52.00;100656.36;107906;1280;76061;-83
2022/06/01 12:12:42;;;;;;;3.30;2.40;;;;;;;17.08;56.64;100656.00;107891;1281;71613;-83
2022/06/01 12:15:29;;;;;;;4.10;2.80;;;;;;;16.92;58.04;100655.31;107750;1281;71348;-83
2022/06/01 12:18:07;;;;;;;4.10;2.90;;;;;;;17.10;57.58;100653.98;107787;1281;61027;-83
2022/06/01 12:20:33;;;;;;;4.70;2.20;;;;;;;17.12;57.32;100653.30;107826;1281;60742;-83
2022/06/01 12:28:48;;;;;;;4.30;3.30;;;;;;;17.23;57.12;100650.86;107856;1281;74300;-82
2022/06/01 12:31:22;;;;;;;5.20;3.50;;;;;;;17.27;57.03;100649.95;107937;1281;60401;-83
2022/06/01 12:34:09;;;;;;;6.20;4.00;;;;;;;17.33;56.82;100645.85;107823;1281;60304;-83
2022/06/01 12:36:35;;;;;;;7.70;3.80;;;;;;;17.22;55.27;100653.50;107783;1281;75103;-82
2022/06/01 12:39:11;;;;;;;3.80;2.90;;;;;;;17.16;56.56;100658.42;107843;1281;59114;-83
2022/06/01 12:41:40;;;;;;;3.80;2.20;;;;;;;17.07;56.40;100654.90;107856;1281;72582;-81